sensor_id;sensor_type;location;lat;lon;timestamp;pressure;altitude;pressure_sealevel;temperature;humidity
41830;BME280;38614;43.472;23.936;2023-03-23T00:00:14;100411.16;;;4.98;100.00
41830;BME280;38614;43.472;23.936;2023-03-23T00:03:01;100428.50;;;5.15;100.00
41830;BME280;38614;43.472;23.936;2023-03-23T00:05:48;100420.97;;;5.30;100.00
41830;BME280;38614;43.472;23.936;2023-03-23T00:08:38;100418.94;;;5.44;100.00
41830;BME280;38614;43.472;23.936;2023-03-23T00:11:33;100415.25;;;5.66;100.00
41830;BME280;38614;43.472;23.936;2023-03-23T00:14:19;100400.41;;;5.58;100.00
41830;BME280;38614;43.472;23.936;2023-03-23T00:17:09;100416.72;;;5.63;100.00
41830;BME280;38614;43.472;23.936;2023-03-23T00:20:01;100417.22;;;5.74;100.00
41830;BME280;38614;43.472;23.936;2023-03-23T00:22:49;100415.13;;;5.71;100.00
41830;BME280;38614;43.472;23.936;2023-03-23T00:25:36;100412.00;;;5.55;100.00
41830;BME280;38614;43.472;23.936;2023-03-23T00:28:24;100412.00;;;5.55;100.00
41830;BME280;38614;43.472;23.936;2023-03-23T00:31:13;100412.81;;;5.56;100.00
41830;BME280;38614;43.472;23.936;2023-03-23T00:33:59;100388.63;;;5.40;100.00
41830;BME280;38614;43.472;23.936;2023-03-23T00:36:54;100368.63;;;5.40;100.00
41830;BME280;38614;43.472;23.936;2023-03-23T00:39:43;100388.44;;;5.46;100.00
41830;BME280;38614;43.472;23.936;2023-03-23T00:42:31;100395.91;;;5.54;100.00
41830;BME280;38614;43.472;23.936;2023-03-23T00:45:22;100391.88;;;5.51;100.00
41830;BME280;38614;43.472;23.936;2023-03-23T00:48:11;100414.28;;;5.62;100.00
41830;BME280;38614;43.472;23.936;2023-03-23T00:51:00;100372.31;;;5.35;100.00
41830;BME280;38614;43.472;23.936;2023-03-23T00:53:47;100400.25;;;5.55;100.00
41830;BME280;38614;43.472;23.936;2023-03-23T00:56:34;100373.94;;;5.45;100.00
41830;BME280;38614;43.472;23.936;2023-03-23T00:59:21;100396.72;;;5.71;100.00
41830;BME280;38614;43.472;23.936;2023-03-23T01:02:10;100368.50;;;5.62;100.00
41830;BME280;38614;43.472;23.936;2023-03-23T01:04:56;100401.88;;;5.73;100.00
41830;BME280;38614;43.472;23.936;2023-03-23T01:07:45;100404.16;;;5.71;100.00
41830;BME280;38614;43.472;23.936;2023-03-23T01:10:32;100383.81;;;5.63;100.00
41830;BME280;38614;43.472;23.936;2023-03-23T01:13:19;100384.78;;;5.59;100.00
41830;BME280;38614;43.472;23.936;2023-03-23T01:16:09;100389.16;;;5.60;100.00
41830;BME280;38614;43.472;23.936;2023-03-23T01:18:56;100391.88;;;5.51;100.00
41830;BME280;38614;43.472;23.936;2023-03-23T01:21:43;100395.72;;;5.50;100.00
41830;BME280;38614;43.472;23.936;2023-03-23T01:24:31;100393.91;;;5.37;100.00
41830;BME280;38614;43.472;23.936;2023-03-23T01:27:18;100392.94;;;5.33;100.00
41830;BME280;38614;43.472;23.936;2023-03-23T01:30:05;100411.31;;;5.32;100.00
41830;BME280;38614;43.472;23.936;2023-03-23T01:32:54;100405.84;;;5.32;100.00
41830;BME280;38614;43.472;23.936;2023-03-23T01:35:41;100400.69;;;5.39;100.00
41830;BME280;38614;43.472;23.936;2023-03-23T01:38:27;100371.16;;;5.28;100.00
41830;BME280;38614;43.472;23.936;2023-03-23T01:41:16;100388.63;;;5.49;100.00
41830;BME280;38614;43.472;23.936;2023-03-23T01:44:06;100406.06;;;5.62;100.00
41830;BME280;38614;43.472;23.936;2023-03-23T01:47:17;100387.50;;;5.41;100.00
41830;BME280;38614;43.472;23.936;2023-03-23T01:50:11;100406.81;;;5.36;100.00
41830;BME280;38614;43.472;23.936;2023-03-23T01:52:59;100408.84;;;5.13;100.00
41830;BME280;38614;43.472;23.936;2023-03-23T01:55:49;100401.53;;;5.09;100.00
41830;BME280;38614;43.472;23.936;2023-03-23T01:58:40;100410.09;;;5.07;100.00
41830;BME280;38614;43.472;23.936;2023-03-23T02:01:30;100410.56;;;5.09;100.00
41830;BME280;38614;43.472;23.936;2023-03-23T02:04:17;100403.00;;;5.06;100.00
41830;BME280;38614;43.472;23.936;2023-03-23T02:07:06;100400.91;;;5.03;100.00
41830;BME280;38614;43.472;23.936;2023-03-23T02:09:56;100406.50;;;4.98;100.00
41830;BME280;38614;43.472;23.936;2023-03-23T02:12:44;100407.25;;;4.90;100.00
41830;BME280;38614;43.472;23.936;2023-03-23T02:33:36;100420.13;;;4.58;100.00
41830;BME280;38614;43.472;23.936;2023-03-23T02:36:37;100409.50;;;4.57;100.00
41830;BME280;38614;43.472;23.936;2023-03-23T02:39:42;100388.72;;;4.34;100.00
41830;BME280;38614;43.472;23.936;2023-03-23T02:42:33;100410.06;;;4.45;100.00
41830;BME280;38614;43.472;23.936;2023-03-23T02:45:23;100401.59;;;4.33;100.00
41830;BME280;38614;43.472;23.936;2023-03-23T02:48:15;100416.59;;;4.36;100.00
41830;BME280;38614;43.472;23.936;2023-03-23T02:51:06;100418.50;;;4.35;100.00
41830;BME280;38614;43.472;23.936;2023-03-23T02:53:55;100406.53;;;4.22;100.00
41830;BME280;38614;43.472;23.936;2023-03-23T02:56:43;100424.94;;;4.31;100.00
41830;BME280;38614;43.472;23.936;2023-03-23T02:59:39;100389.66;;;4.07;100.00
41830;BME280;38614;43.472;23.936;2023-03-23T03:02:33;100423.09;;;4.26;100.00
41830;BME280;38614;43.472;23.936;2023-03-23T03:08:41;100414.34;;;4.15;100.00
41830;BME280;38614;43.472;23.936;2023-03-23T03:11:34;100421.88;;;4.10;100.00
41830;BME280;38614;43.472;23.936;2023-03-23T03:14:28;100437.34;;;4.14;100.00
41830;BME280;38614;43.472;23.936;2023-03-23T03:17:24;100392.56;;;3.88;100.00
41830;BME280;38614;43.472;23.936;2023-03-23T03:20:12;100436.47;;;4.05;100.00
41830;BME280;38614;43.472;23.936;2023-03-23T03:23:01;100400.25;;;3.86;100.00
41830;BME280;38614;43.472;23.936;2023-03-23T03:25:51;100429.69;;;4.03;100.00
41830;BME280;38614;43.472;23.936;2023-03-23T03:28:49;100432.97;;;3.91;100.00
41830;BME280;38614;43.472;23.936;2023-03-23T03:31:39;100440.34;;;3.90;100.00
41830;BME280;38614;43.472;23.936;2023-03-23T03:34:33;100395.75;;;3.67;100.00
41830;BME280;38614;43.472;23.936;2023-03-23T03:37:22;100391.94;;;3.55;100.00
41830;BME280;38614;43.472;23.936;2023-03-23T03:40:13;100443.00;;;3.82;100.00
41830;BME280;38614;43.472;23.936;2023-03-23T03:43:01;100430.66;;;3.70;100.00
41830;BME280;38614;43.472;23.936;2023-03-23T03:45:48;100438.63;;;3.81;100.00
41830;BME280;38614;43.472;23.936;2023-03-23T03:48:34;100451.22;;;3.82;100.00
41830;BME280;38614;43.472;23.936;2023-03-23T03:51:22;100408.59;;;3.53;100.00
41830;BME280;38614;43.472;23.936;2023-03-23T03:54:10;100439.47;;;3.67;100.00
41830;BME280;38614;43.472;23.936;2023-03-23T03:56:57;100440.47;;;3.71;100.00
41830;BME280;38614;43.472;23.936;2023-03-23T04:00:06;100430.66;;;3.70;100.00
41830;BME280;38614;43.472;23.936;2023-03-23T04:03:00;100427.66;;;3.58;100.00
41830;BME280;38614;43.472;23.936;2023-03-23T04:06:17;100445.66;;;3.59;100.00
41830;BME280;38614;43.472;23.936;2023-03-23T04:09:07;100410.16;;;3.46;100.00
41830;BME280;38614;43.472;23.936;2023-03-23T04:11:56;100383.97;;;3.17;100.00
41830;BME280;38614;43.472;23.936;2023-03-23T04:15:06;100432.13;;;3.54;100.00
41830;BME280;38614;43.472;23.936;2023-03-23T04:17:55;100412.09;;;3.45;100.00
41830;BME280;38614;43.472;23.936;2023-03-23T04:20:45;100439.50;;;3.54;100.00
41830;BME280;38614;43.472;23.936;2023-03-23T04:23:35;100408.63;;;3.39;100.00
41830;BME280;38614;43.472;23.936;2023-03-23T04:26:23;100439.59;;;3.49;100.00
41830;BME280;38614;43.472;23.936;2023-03-23T04:29:11;100439.50;;;3.54;100.00
41830;BME280;38614;43.472;23.936;2023-03-23T04:32:20;100440.41;;;3.49;100.00
41830;BME280;38614;43.472;23.936;2023-03-23T04:35:13;100426.47;;;3.37;100.00
41830;BME280;38614;43.472;23.936;2023-03-23T04:38:27;100438.66;;;3.53;100.00
41830;BME280;38614;43.472;23.936;2023-03-23T04:41:22;100445.94;;;3.71;100.00
41830;BME280;38614;43.472;23.936;2023-03-23T04:44:34;100449.19;;;3.74;100.00
41830;BME280;38614;43.472;23.936;2023-03-23T04:47:33;100454.88;;;3.63;100.00
41830;BME280;38614;43.472;23.936;2023-03-23T04:50:34;100458.19;;;3.60;100.00
41830;BME280;38614;43.472;23.936;2023-03-23T04:53:32;100427.06;;;3.48;100.00
41830;BME280;38614;43.472;23.936;2023-03-23T04:56:21;100431.69;;;3.61;100.00
41830;BME280;38614;43.472;23.936;2023-03-23T04:59:08;100457.38;;;3.87;100.00
41830;BME280;38614;43.472;23.936;2023-03-23T05:02:04;100461.94;;;3.92;100.00
41830;BME280;38614;43.472;23.936;2023-03-23T05:04:51;100472.97;;;3.87;100.00
41830;BME280;38614;43.472;23.936;2023-03-23T05:07:42;100483.56;;;4.02;100.00
41830;BME280;38614;43.472;23.936;2023-03-23T05:10:29;100481.91;;;4.15;100.00
41830;BME280;38614;43.472;23.936;2023-03-23T05:13:22;100467.16;;;4.02;100.00
41830;BME280;38614;43.472;23.936;2023-03-23T05:16:12;100494.44;;;4.29;100.00
41830;BME280;38614;43.472;23.936;2023-03-23T05:19:00;100482.41;;;4.17;100.00
41830;BME280;38614;43.472;23.936;2023-03-23T05:21:49;100492.22;;;4.18;100.00
41830;BME280;38614;43.472;23.936;2023-03-23T05:24:35;100475.78;;;4.32;100.00
41830;BME280;38614;43.472;23.936;2023-03-23T05:27:24;100494.06;;;4.45;100.00
41830;BME280;38614;43.472;23.936;2023-03-23T05:30:20;100488.63;;;4.67;100.00
41830;BME280;38614;43.472;23.936;2023-03-23T05:33:07;100490.63;;;4.75;100.00
41830;BME280;38614;43.472;23.936;2023-03-23T05:36:11;100424.44;;;4.28;100.00
41830;BME280;38614;43.472;23.936;2023-03-23T05:39:22;100494.41;;;4.88;100.00
41830;BME280;38614;43.472;23.936;2023-03-23T05:42:28;100501.66;;;5.15;100.00
41830;BME280;38614;43.472;23.936;2023-03-23T05:45:35;100471.88;;;5.22;100.00
41830;BME280;38614;43.472;23.936;2023-03-23T05:48:23;100477.94;;;5.41;100.00
41830;BME280;38614;43.472;23.936;2023-03-23T05:51:10;100491.31;;;5.43;100.00
41830;BME280;38614;43.472;23.936;2023-03-23T05:54:02;100507.03;;;5.60;100.00
41830;BME280;38614;43.472;23.936;2023-03-23T05:56:50;100500.56;;;5.64;100.00
41830;BME280;38614;43.472;23.936;2023-03-23T05:59:56;100485.13;;;5.68;100.00
41830;BME280;38614;43.472;23.936;2023-03-23T06:02:44;100503.06;;;5.83;100.00
41830;BME280;38614;43.472;23.936;2023-03-23T06:05:44;100519.94;;;6.08;100.00
41830;BME280;38614;43.472;23.936;2023-03-23T06:08:34;100482.47;;;6.03;100.00
41830;BME280;38614;43.472;23.936;2023-03-23T06:11:24;100521.41;;;6.31;100.00
41830;BME280;38614;43.472;23.936;2023-03-23T06:14:30;100522.09;;;6.45;100.00
41830;BME280;38614;43.472;23.936;2023-03-23T06:17:17;100502.22;;;6.48;100.00
41830;BME280;38614;43.472;23.936;2023-03-23T06:20:07;100513.50;;;6.81;100.00
41830;BME280;38614;43.472;23.936;2023-03-23T06:22:56;100527.38;;;7.02;100.00
41830;BME280;38614;43.472;23.936;2023-03-23T06:25:57;100515.38;;;7.15;100.00
41830;BME280;38614;43.472;23.936;2023-03-23T06:28:46;100527.59;;;7.44;100.00
41830;BME280;38614;43.472;23.936;2023-03-23T06:31:33;100491.81;;;7.53;100.00
41830;BME280;38614;43.472;23.936;2023-03-23T06:34:21;100515.59;;;7.87;100.00
41830;BME280;38614;43.472;23.936;2023-03-23T06:37:27;100508.69;;;8.10;100.00
41830;BME280;38614;43.472;23.936;2023-03-23T06:40:43;100504.69;;;8.49;100.00
41830;BME280;38614;43.472;23.936;2023-03-23T06:43:34;100491.00;;;8.95;100.00
41830;BME280;38614;43.472;23.936;2023-03-23T06:46:32;100504.31;;;9.38;100.00
41830;BME280;38614;43.472;23.936;2023-03-23T06:49:37;100476.28;;;9.48;100.00
41830;BME280;38614;43.472;23.936;2023-03-23T06:52:49;100475.69;;;10.28;100.00
41830;BME280;38614;43.472;23.936;2023-03-23T06:55:37;100462.00;;;10.60;100.00
41830;BME280;38614;43.472;23.936;2023-03-23T06:58:24;100474.81;;;11.08;100.00
41830;BME280;38614;43.472;23.936;2023-03-23T07:01:12;100480.38;;;11.55;100.00
41830;BME280;38614;43.472;23.936;2023-03-23T07:04:04;100472.69;;;11.49;100.00
41830;BME280;38614;43.472;23.936;2023-03-23T07:07:08;100483.91;;;11.71;100.00
41830;BME280;38614;43.472;23.936;2023-03-23T07:10:05;100445.88;;;11.68;100.00
41830;BME280;38614;43.472;23.936;2023-03-23T07:12:52;100480.34;;;12.03;100.00
41830;BME280;38614;43.472;23.936;2023-03-23T07:15:39;100479.91;;;11.69;100.00
41830;BME280;38614;43.472;23.936;2023-03-23T07:18:26;100485.44;;;11.37;100.00
41830;BME280;38614;43.472;23.936;2023-03-23T07:21:15;100489.03;;;11.38;100.00
41830;BME280;38614;43.472;23.936;2023-03-23T07:24:01;100500.63;;;11.91;100.00
41830;BME280;38614;43.472;23.936;2023-03-23T07:27:06;100494.03;;;11.64;100.00
41830;BME280;38614;43.472;23.936;2023-03-23T07:29:56;100497.75;;;11.71;100.00
41830;BME280;38614;43.472;23.936;2023-03-23T07:32:46;100473.50;;;11.65;100.00
41830;BME280;38614;43.472;23.936;2023-03-23T07:35:33;100512.91;;;12.09;100.00
41830;BME280;38614;43.472;23.936;2023-03-23T07:38:27;100511.50;;;12.15;100.00
41830;BME280;38614;43.472;23.936;2023-03-23T07:41:14;100511.97;;;12.37;100.00
41830;BME280;38614;43.472;23.936;2023-03-23T07:44:02;100470.72;;;12.51;100.00
41830;BME280;38614;43.472;23.936;2023-03-23T07:46:55;100507.34;;;12.79;100.00
41830;BME280;38614;43.472;23.936;2023-03-23T07:49:49;100498.91;;;13.15;100.00
41830;BME280;38614;43.472;23.936;2023-03-23T07:52:53;100491.78;;;12.94;100.00
41830;BME280;38614;43.472;23.936;2023-03-23T07:55:40;100498.13;;;13.14;100.00
41830;BME280;38614;43.472;23.936;2023-03-23T07:58:42;100494.94;;;13.58;100.00
41830;BME280;38614;43.472;23.936;2023-03-23T08:01:32;100494.59;;;13.86;100.00
41830;BME280;38614;43.472;23.936;2023-03-23T08:04:42;100451.09;;;13.21;100.00
41830;BME280;38614;43.472;23.936;2023-03-23T08:07:34;100483.97;;;13.65;100.00
41830;BME280;38614;43.472;23.936;2023-03-23T08:10:28;100477.91;;;13.82;100.00
41830;BME280;38614;43.472;23.936;2023-03-23T08:13:43;100476.72;;;14.10;100.00
41830;BME280;38614;43.472;23.936;2023-03-23T08:16:58;100469.94;;;14.34;100.00
41830;BME280;38614;43.472;23.936;2023-03-23T08:20:06;100467.97;;;14.64;100.00
41830;BME280;38614;43.472;23.936;2023-03-23T08:23:11;100483.31;;;15.22;100.00
41830;BME280;38614;43.472;23.936;2023-03-23T08:26:16;100482.97;;;15.71;100.00
41830;BME280;38614;43.472;23.936;2023-03-23T08:29:22;100478.47;;;16.04;100.00
41830;BME280;38614;43.472;23.936;2023-03-23T08:32:26;100465.06;;;15.68;100.00
41830;BME280;38614;43.472;23.936;2023-03-23T08:35:33;100467.53;;;15.81;100.00
41830;BME280;38614;43.472;23.936;2023-03-23T08:38:20;100456.19;;;15.15;100.00
41830;BME280;38614;43.472;23.936;2023-03-23T08:41:22;100461.09;;;15.29;100.00
41830;BME280;38614;43.472;23.936;2023-03-23T08:44:11;100467.53;;;15.81;100.00
41830;BME280;38614;43.472;23.936;2023-03-23T08:47:16;100468.38;;;15.85;100.00
41830;BME280;38614;43.472;23.936;2023-03-23T08:50:15;100472.19;;;16.21;100.00
41830;BME280;38614;43.472;23.936;2023-03-23T08:53:33;100473.84;;;16.36;100.00
41830;BME280;38614;43.472;23.936;2023-03-23T08:56:59;100476.97;;;16.20;100.00
41830;BME280;38614;43.472;23.936;2023-03-23T08:59:52;100448.94;;;15.92;100.00
41830;BME280;38614;43.472;23.936;2023-03-23T09:02:54;100473.63;;;16.66;100.00
41830;BME280;38614;43.472;23.936;2023-03-23T09:05:45;100471.47;;;16.35;100.00
41830;BME280;38614;43.472;23.936;2023-03-23T09:08:53;100482.28;;;16.47;100.00
41830;BME280;38614;43.472;23.936;2023-03-23T09:11:41;100472.16;;;17.01;100.00
41830;BME280;38614;43.472;23.936;2023-03-23T09:14:28;100471.72;;;16.85;100.00
41830;BME280;38614;43.472;23.936;2023-03-23T09:17:14;100480.53;;;16.97;100.00
41830;BME280;38614;43.472;23.936;2023-03-23T09:20:01;100476.44;;;16.70;100.00
41830;BME280;38614;43.472;23.936;2023-03-23T09:22:53;100474.38;;;16.60;100.00
41830;BME280;38614;43.472;23.936;2023-03-23T09:25:40;100462.94;;;16.83;100.00
41830;BME280;38614;43.472;23.936;2023-03-23T09:28:27;100457.84;;;17.38;100.00
41830;BME280;38614;43.472;23.936;2023-03-23T09:31:14;100456.59;;;16.96;100.00
41830;BME280;38614;43.472;23.936;2023-03-23T09:34:01;100458.28;;;17.97;100.00
41830;BME280;38614;43.472;23.936;2023-03-23T09:36:50;100449.06;;;17.29;100.00
41830;BME280;38614;43.472;23.936;2023-03-23T09:39:38;100464.09;;;16.71;100.00
41830;BME280;38614;43.472;23.936;2023-03-23T09:51:53;100462.97;;;18.39;100.00
41830;BME280;38614;43.472;23.936;2023-03-23T09:54:49;100435.41;;;18.34;100.00
41830;BME280;38614;43.472;23.936;2023-03-23T09:57:57;100458.28;;;17.54;100.00
41830;BME280;38614;43.472;23.936;2023-03-23T10:01:00;100455.88;;;17.24;100.00
41830;BME280;38614;43.472;23.936;2023-03-23T10:03:48;100463.81;;;18.26;100.00
41830;BME280;38614;43.472;23.936;2023-03-23T10:06:38;100434.31;;;17.46;100.00
41830;BME280;38614;43.472;23.936;2023-03-23T10:09:25;100459.03;;;17.30;100.00
41830;BME280;38614;43.472;23.936;2023-03-23T10:12:24;100456.69;;;17.60;100.00
41830;BME280;38614;43.472;23.936;2023-03-23T10:15:28;100462.63;;;17.27;100.00
41830;BME280;38614;43.472;23.936;2023-03-23T10:18:35;100458.69;;;17.42;100.00
41830;BME280;38614;43.472;23.936;2023-03-23T10:21:23;100449.50;;;17.77;100.00
41830;BME280;38614;43.472;23.936;2023-03-23T10:24:15;100456.22;;;18.22;100.00
41830;BME280;38614;43.472;23.936;2023-03-23T10:27:13;100440.53;;;18.50;100.00
41830;BME280;38614;43.472;23.936;2023-03-23T10:33:08;100446.28;;;17.68;100.00
41830;BME280;38614;43.472;23.936;2023-03-23T10:36:08;100442.72;;;17.89;100.00
41830;BME280;38614;43.472;23.936;2023-03-23T10:39:11;100424.75;;;17.51;100.00
41830;BME280;38614;43.472;23.936;2023-03-23T10:42:00;100439.91;;;17.25;100.00
41830;BME280;38614;43.472;23.936;2023-03-23T10:44:54;100427.13;;;17.31;100.00
41830;BME280;38614;43.472;23.936;2023-03-23T10:47:47;100427.88;;;18.17;100.00
41830;BME280;38614;43.472;23.936;2023-03-23T10:50:37;100432.16;;;18.50;100.00
41830;BME280;38614;43.472;23.936;2023-03-23T10:53:34;100426.13;;;18.62;100.00
41830;BME280;38614;43.472;23.936;2023-03-23T10:56:24;100426.31;;;17.94;100.00
41830;BME280;38614;43.472;23.936;2023-03-23T10:59:14;100430.75;;;17.53;100.00
41830;BME280;38614;43.472;23.936;2023-03-23T11:02:02;100433.72;;;16.66;100.00
41830;BME280;38614;43.472;23.936;2023-03-23T11:05:00;100420.66;;;16.80;100.00
41830;BME280;38614;43.472;23.936;2023-03-23T11:07:53;100380.31;;;16.60;100.00
41830;BME280;38614;43.472;23.936;2023-03-23T11:10:52;100424.97;;;16.64;100.00
41830;BME280;38614;43.472;23.936;2023-03-23T11:13:44;100418.97;;;16.58;100.00
41830;BME280;38614;43.472;23.936;2023-03-23T11:16:33;100421.06;;;16.79;100.00
41830;BME280;38614;43.472;23.936;2023-03-23T11:19:23;100420.94;;;16.50;100.00
41830;BME280;38614;43.472;23.936;2023-03-23T11:22:32;100424.69;;;16.90;100.00
41830;BME280;38614;43.472;23.936;2023-03-23T11:25:19;100402.38;;;16.94;100.00
41830;BME280;38614;43.472;23.936;2023-03-23T11:28:08;100421.94;;;17.15;100.00
41830;BME280;38614;43.472;23.936;2023-03-23T11:30:55;100410.34;;;16.95;100.00
41830;BME280;38614;43.472;23.936;2023-03-23T11:34:04;100395.59;;;16.95;100.00
41830;BME280;38614;43.472;23.936;2023-03-23T11:37:18;100410.75;;;17.93;100.00
41830;BME280;38614;43.472;23.936;2023-03-23T11:43:12;100400.41;;;17.37;100.00
41830;BME280;38614;43.472;23.936;2023-03-23T11:46:20;100402.38;;;17.58;100.00
41830;BME280;38614;43.472;23.936;2023-03-23T11:49:29;100402.38;;;17.90;100.00
41830;BME280;38614;43.472;23.936;2023-03-23T11:52:34;100386.03;;;17.49;100.00
41830;BME280;38614;43.472;23.936;2023-03-23T11:58:23;100387.13;;;16.66;100.00
41830;BME280;38614;43.472;23.936;2023-03-23T12:01:28;100395.44;;;16.52;100.00
41830;BME280;38614;43.472;23.936;2023-03-23T12:04:33;100391.09;;;16.65;100.00
41830;BME280;38614;43.472;23.936;2023-03-23T12:07:50;100389.59;;;17.10;100.00
41830;BME280;38614;43.472;23.936;2023-03-23T12:14:23;100383.09;;;18.20;100.00
41830;BME280;38614;43.472;23.936;2023-03-23T12:17:20;100380.97;;;18.53;100.00
41830;BME280;38614;43.472;23.936;2023-03-23T12:23:29;100377.53;;;18.13;100.00
41830;BME280;38614;43.472;23.936;2023-03-23T12:29:39;100369.66;;;17.37;100.00
41830;BME280;38614;43.472;23.936;2023-03-23T12:38:24;100363.97;;;16.62;100.00
41830;BME280;38614;43.472;23.936;2023-03-23T12:44:10;100364.25;;;16.25;100.00
41830;BME280;38614;43.472;23.936;2023-03-23T12:53:22;100355.38;;;15.98;100.00
41830;BME280;38614;43.472;23.936;2023-03-23T13:02:31;100343.34;;;17.02;100.00
41830;BME280;38614;43.472;23.936;2023-03-23T13:08:19;100337.34;;;17.29;100.00
41830;BME280;38614;43.472;23.936;2023-03-23T13:11:16;100333.72;;;17.57;100.00
41830;BME280;38614;43.472;23.936;2023-03-23T13:17:51;100334.56;;;17.32;100.00
41830;BME280;38614;43.472;23.936;2023-03-23T13:21:14;100330.53;;;17.65;100.00
41830;BME280;38614;43.472;23.936;2023-03-23T13:23:57;100314.63;;;17.23;100.00
41830;BME280;38614;43.472;23.936;2023-03-23T13:26:45;100316.16;;;17.74;100.00
41830;BME280;38614;43.472;23.936;2023-03-23T13:29:34;100299.03;;;17.40;100.00
41830;BME280;38614;43.472;23.936;2023-03-23T13:32:27;100320.19;;;17.20;100.00
41830;BME280;38614;43.472;23.936;2023-03-23T13:35:18;100291.41;;;17.62;100.00
41830;BME280;38614;43.472;23.936;2023-03-23T13:38:19;100305.31;;;17.94;100.00
41830;BME280;38614;43.472;23.936;2023-03-23T13:41:10;100287.03;;;17.72;100.00
41830;BME280;38614;43.472;23.936;2023-03-23T13:44:26;100307.75;;;17.88;100.00
41830;BME280;38614;43.472;23.936;2023-03-23T13:50:11;100285.84;;;17.48;100.00
41830;BME280;38614;43.472;23.936;2023-03-23T13:53:13;100300.56;;;17.84;100.00
41830;BME280;38614;43.472;23.936;2023-03-23T13:56:21;100300.63;;;17.70;100.00
41830;BME280;38614;43.472;23.936;2023-03-23T13:59:14;100314.97;;;17.54;100.00
41830;BME280;38614;43.472;23.936;2023-03-23T14:11:10;100299.47;;;17.24;100.00
41830;BME280;38614;43.472;23.936;2023-03-23T14:14:04;100298.63;;;17.45;100.00
41830;BME280;38614;43.472;23.936;2023-03-23T14:16:52;100295.44;;;17.47;100.00
41830;BME280;38614;43.472;23.936;2023-03-23T14:19:40;100277.94;;;17.07;100.00
41830;BME280;38614;43.472;23.936;2023-03-23T14:22:33;100289.88;;;17.25;100.00
41830;BME280;38614;43.472;23.936;2023-03-23T14:25:25;100279.13;;;17.20;100.00
41830;BME280;38614;43.472;23.936;2023-03-23T14:28:19;100266.75;;;17.18;100.00
41830;BME280;38614;43.472;23.936;2023-03-23T14:31:19;100288.31;;;17.06;100.00
41830;BME280;38614;43.472;23.936;2023-03-23T14:34:18;100281.13;;;17.05;100.00
41830;BME280;38614;43.472;23.936;2023-03-23T14:37:11;100263.59;;;16.98;100.00
41830;BME280;38614;43.472;23.936;2023-03-23T14:39:59;100265.56;;;17.22;100.00
41830;BME280;38614;43.472;23.936;2023-03-23T14:42:46;100251.22;;;17.09;100.00
41830;BME280;38614;43.472;23.936;2023-03-23T14:45:33;100273.16;;;17.04;100.00
41830;BME280;38614;43.472;23.936;2023-03-23T14:48:20;100265.56;;;16.58;100.00
41830;BME280;38614;43.472;23.936;2023-03-23T14:51:17;100257.97;;;16.59;100.00
41830;BME280;38614;43.472;23.936;2023-03-23T14:54:07;100257.59;;;16.67;100.00
41830;BME280;38614;43.472;23.936;2023-03-23T14:56:55;100261.94;;;16.65;100.00
41830;BME280;38614;43.472;23.936;2023-03-23T14:59:43;100228.03;;;16.23;100.00
41830;BME280;38614;43.472;23.936;2023-03-23T15:02:36;100270.69;;;16.45;100.00
41830;BME280;38614;43.472;23.936;2023-03-23T15:05:36;100241.59;;;16.29;100.00
41830;BME280;38614;43.472;23.936;2023-03-23T15:08:28;100265.91;;;16.42;100.00
41830;BME280;38614;43.472;23.936;2023-03-23T15:14:18;100273.06;;;16.29;100.00
41830;BME280;38614;43.472;23.936;2023-03-23T15:17:17;100269.06;;;16.23;100.00
41830;BME280;38614;43.472;23.936;2023-03-23T15:20:10;100234.66;;;15.76;100.00
41830;BME280;38614;43.472;23.936;2023-03-23T15:23:07;100263.38;;;15.91;100.00
41830;BME280;38614;43.472;23.936;2023-03-23T15:25:57;100258.91;;;15.72;100.00
41830;BME280;38614;43.472;23.936;2023-03-23T15:32:10;100236.41;;;15.33;100.00
41830;BME280;38614;43.472;23.936;2023-03-23T15:35:04;100252.38;;;15.43;100.00
41830;BME280;38614;43.472;23.936;2023-03-23T15:37:53;100261.06;;;15.34;100.00
41830;BME280;38614;43.472;23.936;2023-03-23T15:40:43;100253.88;;;15.26;100.00
41830;BME280;38614;43.472;23.936;2023-03-23T15:43:34;100259.34;;;15.16;100.00
41830;BME280;38614;43.472;23.936;2023-03-23T15:46:23;100246.50;;;14.97;100.00
41830;BME280;38614;43.472;23.936;2023-03-23T15:49:11;100255.63;;;14.90;100.00
41830;BME280;38614;43.472;23.936;2023-03-23T15:51:59;100248.31;;;14.75;100.00
41830;BME280;38614;43.472;23.936;2023-03-23T15:54:47;100250.31;;;14.74;100.00
41830;BME280;38614;43.472;23.936;2023-03-23T15:57:34;100261.34;;;14.64;100.00
41830;BME280;38614;43.472;23.936;2023-03-23T16:00:22;100257.63;;;14.49;100.00
41830;BME280;38614;43.472;23.936;2023-03-23T16:03:16;100255.19;;;14.44;100.00
41830;BME280;38614;43.472;23.936;2023-03-23T16:06:05;100253.13;;;14.37;100.00
41830;BME280;38614;43.472;23.936;2023-03-23T16:08:53;100240.56;;;14.13;100.00
41830;BME280;38614;43.472;23.936;2023-03-23T16:11:42;100258.09;;;14.17;100.00
41830;BME280;38614;43.472;23.936;2023-03-23T16:14:30;100261.97;;;14.13;100.00
41830;BME280;38614;43.472;23.936;2023-03-23T16:17:19;100250.59;;;13.88;100.00
41830;BME280;38614;43.472;23.936;2023-03-23T16:20:13;100250.50;;;13.81;100.00
41830;BME280;38614;43.472;23.936;2023-03-23T16:23:01;100261.06;;;13.68;100.00
41830;BME280;38614;43.472;23.936;2023-03-23T16:25:49;100236.44;;;13.36;100.00